sensor_id;sensor_type;location;lat;lon;timestamp;P1;durP1;ratioP1;P2;durP2;ratioP2
72408;SDS011;60402;48.082;11.628;2023-05-27T00:01:45;11.77;;;5.85;;
72408;SDS011;60402;48.082;11.628;2023-05-27T00:04:30;11.82;;;6.55;;
72408;SDS011;60402;48.082;11.628;2023-05-27T00:07:16;12.10;;;6.63;;
72408;SDS011;60402;48.082;11.628;2023-05-27T00:10:02;12.52;;;5.90;;
72408;SDS011;60402;48.082;11.628;2023-05-27T00:12:48;11.75;;;6.43;;
72408;SDS011;60402;48.082;11.628;2023-05-27T00:15:33;11.18;;;6.13;;
72408;SDS011;60402;48.082;11.628;2023-05-27T00:18:20;12.68;;;6.30;;
72408;SDS011;60402;48.082;11.628;2023-05-27T00:21:06;14.77;;;6.00;;
72408;SDS011;60402;48.082;11.628;2023-05-27T00:23:52;11.82;;;6.05;;
72408;SDS011;60402;48.082;11.628;2023-05-27T00:26:37;12.45;;;5.90;;
72408;SDS011;60402;48.082;11.628;2023-05-27T00:29:24;10.65;;;5.70;;
72408;SDS011;60402;48.082;11.628;2023-05-27T00:32:10;11.75;;;6.15;;
72408;SDS011;60402;48.082;11.628;2023-05-27T00:34:55;11.45;;;6.15;;
72408;SDS011;60402;48.082;11.628;2023-05-27T00:37:41;14.10;;;6.15;;
72408;SDS011;60402;48.082;11.628;2023-05-27T00:40:27;14.02;;;6.60;;
72408;SDS011;60402;48.082;11.628;2023-05-27T00:43:15;9.05;;;5.57;;
72408;SDS011;60402;48.082;11.628;2023-05-27T00:46:01;11.68;;;6.63;;
72408;SDS011;60402;48.082;11.628;2023-05-27T00:48:47;12.65;;;6.45;;
72408;SDS011;60402;48.082;11.628;2023-05-27T00:51:33;13.95;;;6.53;;
72408;SDS011;60402;48.082;11.628;2023-05-27T00:54:18;11.00;;;6.47;;
72408;SDS011;60402;48.082;11.628;2023-05-27T00:57:04;11.27;;;6.00;;
72408;SDS011;60402;48.082;11.628;2023-05-27T00:59:51;12.88;;;6.97;;
72408;SDS011;60402;48.082;11.628;2023-05-27T01:02:37;10.73;;;5.93;;
72408;SDS011;60402;48.082;11.628;2023-05-27T01:05:25;10.63;;;6.35;;
72408;SDS011;60402;48.082;11.628;2023-05-27T01:08:29;13.32;;;6.05;;
72408;SDS011;60402;48.082;11.628;2023-05-27T01:11:21;11.48;;;6.28;;
72408;SDS011;60402;48.082;11.628;2023-05-27T01:14:13;12.60;;;6.20;;
72408;SDS011;60402;48.082;11.628;2023-05-27T01:16:59;10.50;;;6.68;;
72408;SDS011;60402;48.082;11.628;2023-05-27T01:19:48;11.73;;;6.72;;
72408;SDS011;60402;48.082;11.628;2023-05-27T01:22:36;11.10;;;6.55;;
72408;SDS011;60402;48.082;11.628;2023-05-27T01:25:22;13.23;;;7.35;;
72408;SDS011;60402;48.082;11.628;2023-05-27T01:28:09;13.57;;;7.20;;
72408;SDS011;60402;48.082;11.628;2023-05-27T01:30:55;15.02;;;7.07;;
72408;SDS011;60402;48.082;11.628;2023-05-27T01:34:07;12.85;;;7.25;;
72408;SDS011;60402;48.082;11.628;2023-05-27T01:36:56;12.85;;;6.45;;
72408;SDS011;60402;48.082;11.628;2023-05-27T01:39:46;13.38;;;6.65;;
72408;SDS011;60402;48.082;11.628;2023-05-27T01:42:34;12.02;;;6.53;;
72408;SDS011;60402;48.082;11.628;2023-05-27T01:45:21;13.63;;;7.53;;
72408;SDS011;60402;48.082;11.628;2023-05-27T01:48:07;14.90;;;7.10;;
72408;SDS011;60402;48.082;11.628;2023-05-27T01:50:54;13.50;;;7.32;;
72408;SDS011;60402;48.082;11.628;2023-05-27T01:53:40;11.13;;;6.28;;
72408;SDS011;60402;48.082;11.628;2023-05-27T01:56:25;12.43;;;6.10;;
72408;SDS011;60402;48.082;11.628;2023-05-27T01:59:11;11.77;;;7.15;;
72408;SDS011;60402;48.082;11.628;2023-05-27T02:01:57;12.00;;;7.13;;
72408;SDS011;60402;48.082;11.628;2023-05-27T02:04:42;13.57;;;6.47;;
72408;SDS011;60402;48.082;11.628;2023-05-27T02:07:28;11.80;;;6.43;;
72408;SDS011;60402;48.082;11.628;2023-05-27T02:10:14;10.68;;;6.35;;
72408;SDS011;60402;48.082;11.628;2023-05-27T02:12:59;11.38;;;6.43;;
72408;SDS011;60402;48.082;11.628;2023-05-27T02:15:45;11.90;;;6.75;;
72408;SDS011;60402;48.082;11.628;2023-05-27T02:18:31;12.80;;;7.38;;
72408;SDS011;60402;48.082;11.628;2023-05-27T02:21:16;12.13;;;6.80;;
72408;SDS011;60402;48.082;11.628;2023-05-27T02:24:02;13.35;;;7.53;;
72408;SDS011;60402;48.082;11.628;2023-05-27T02:26:48;13.30;;;7.97;;
72408;SDS011;60402;48.082;11.628;2023-05-27T02:29:33;15.48;;;7.57;;
72408;SDS011;60402;48.082;11.628;2023-05-27T02:32:19;14.73;;;7.05;;
72408;SDS011;60402;48.082;11.628;2023-05-27T02:35:05;10.98;;;6.40;;
72408;SDS011;60402;48.082;11.628;2023-05-27T02:37:51;13.32;;;6.95;;
72408;SDS011;60402;48.082;11.628;2023-05-27T02:40:36;15.00;;;7.47;;
72408;SDS011;60402;48.082;11.628;2023-05-27T02:43:22;11.70;;;7.00;;
72408;SDS011;60402;48.082;11.628;2023-05-27T02:46:08;12.43;;;6.78;;
72408;SDS011;60402;48.082;11.628;2023-05-27T02:48:54;15.15;;;7.45;;
72408;SDS011;60402;48.082;11.628;2023-05-27T02:51:40;14.85;;;7.43;;
72408;SDS011;60402;48.082;11.628;2023-05-27T02:54:25;13.32;;;7.63;;
72408;SDS011;60402;48.082;11.628;2023-05-27T02:57:11;14.90;;;7.50;;
72408;SDS011;60402;48.082;11.628;2023-05-27T02:59:56;13.40;;;7.43;;
72408;SDS011;60402;48.082;11.628;2023-05-27T03:02:42;13.25;;;7.15;;
72408;SDS011;60402;48.082;11.628;2023-05-27T03:05:28;13.25;;;7.25;;
72408;SDS011;60402;48.082;11.628;2023-05-27T03:08:13;14.32;;;6.45;;
72408;SDS011;60402;48.082;11.628;2023-05-27T03:10:59;11.45;;;6.70;;
72408;SDS011;60402;48.082;11.628;2023-05-27T03:13:45;12.75;;;7.38;;
72408;SDS011;60402;48.082;11.628;2023-05-27T03:16:30;12.77;;;6.93;;
72408;SDS011;60402;48.082;11.628;2023-05-27T03:19:16;11.50;;;7.25;;
72408;SDS011;60402;48.082;11.628;2023-05-27T03:22:02;12.05;;;7.00;;
72408;SDS011;60402;48.082;11.628;2023-05-27T03:24:48;13.77;;;7.30;;
72408;SDS011;60402;48.082;11.628;2023-05-27T03:27:33;17.52;;;7.95;;
72408;SDS011;60402;48.082;11.628;2023-05-27T03:30:19;11.18;;;7.35;;
72408;SDS011;60402;48.082;11.628;2023-05-27T03:33:05;13.27;;;7.45;;
72408;SDS011;60402;48.082;11.628;2023-05-27T03:35:51;12.02;;;7.57;;
72408;SDS011;60402;48.082;11.628;2023-05-27T03:38:36;14.27;;;7.22;;
72408;SDS011;60402;48.082;11.628;2023-05-27T03:41:22;15.02;;;7.47;;
72408;SDS011;60402;48.082;11.628;2023-05-27T03:44:08;11.73;;;7.30;;
72408;SDS011;60402;48.082;11.628;2023-05-27T03:46:54;12.48;;;7.38;;
72408;SDS011;60402;48.082;11.628;2023-05-27T03:49:40;13.07;;;7.55;;
72408;SDS011;60402;48.082;11.628;2023-05-27T03:52:26;15.40;;;7.78;;
72408;SDS011;60402;48.082;11.628;2023-05-27T03:55:11;14.75;;;7.38;;
72408;SDS011;60402;48.082;11.628;2023-05-27T03:57:57;13.45;;;7.05;;
72408;SDS011;60402;48.082;11.628;2023-05-27T04:00:43;11.88;;;7.00;;
72408;SDS011;60402;48.082;11.628;2023-05-27T04:03:28;15.73;;;8.40;;
72408;SDS011;60402;48.082;11.628;2023-05-27T04:06:14;13.57;;;7.60;;
72408;SDS011;60402;48.082;11.628;2023-05-27T04:09:00;15.05;;;7.53;;
72408;SDS011;60402;48.082;11.628;2023-05-27T04:11:46;14.25;;;7.43;;
72408;SDS011;60402;48.082;11.628;2023-05-27T04:14:32;13.65;;;7.25;;
72408;SDS011;60402;48.082;11.628;2023-05-27T04:17:18;14.25;;;8.52;;
72408;SDS011;60402;48.082;11.628;2023-05-27T04:20:03;15.35;;;7.43;;
72408;SDS011;60402;48.082;11.628;2023-05-27T04:22:58;17.38;;;8.18;;
72408;SDS011;60402;48.082;11.628;2023-05-27T04:25:44;12.35;;;7.55;;
72408;SDS011;60402;48.082;11.628;2023-05-27T04:28:29;15.23;;;7.40;;
72408;SDS011;60402;48.082;11.628;2023-05-27T04:31:15;14.35;;;8.27;;
72408;SDS011;60402;48.082;11.628;2023-05-27T04:34:01;15.07;;;7.57;;
72408;SDS011;60402;48.082;11.628;2023-05-27T04:36:48;15.00;;;8.38;;
72408;SDS011;60402;48.082;11.628;2023-05-27T04:39:35;14.63;;;7.45;;
72408;SDS011;60402;48.082;11.628;2023-05-27T04:42:21;14.57;;;8.50;;
72408;SDS011;60402;48.082;11.628;2023-05-27T04:45:06;12.32;;;7.30;;
72408;SDS011;60402;48.082;11.628;2023-05-27T04:47:53;13.00;;;8.07;;
72408;SDS011;60402;48.082;11.628;2023-05-27T04:50:39;14.25;;;7.82;;
72408;SDS011;60402;48.082;11.628;2023-05-27T04:53:26;12.55;;;6.85;;
72408;SDS011;60402;48.082;11.628;2023-05-27T04:56:11;14.80;;;7.13;;
72408;SDS011;60402;48.082;11.628;2023-05-27T04:59:00;13.15;;;7.18;;
72408;SDS011;60402;48.082;11.628;2023-05-27T05:01:46;13.70;;;6.32;;
72408;SDS011;60402;48.082;11.628;2023-05-27T05:04:44;12.68;;;6.78;;
72408;SDS011;60402;48.082;11.628;2023-05-27T05:07:30;11.00;;;7.10;;
72408;SDS011;60402;48.082;11.628;2023-05-27T05:10:16;10.45;;;6.30;;
72408;SDS011;60402;48.082;11.628;2023-05-27T05:13:02;10.18;;;6.53;;
72408;SDS011;60402;48.082;11.628;2023-05-27T05:15:47;12.65;;;5.90;;
72408;SDS011;60402;48.082;11.628;2023-05-27T05:18:33;10.98;;;6.28;;
72408;SDS011;60402;48.082;11.628;2023-05-27T05:21:19;11.68;;;6.18;;
72408;SDS011;60402;48.082;11.628;2023-05-27T05:24:05;12.75;;;6.38;;
72408;SDS011;60402;48.082;11.628;2023-05-27T05:26:51;11.32;;;5.65;;
72408;SDS011;60402;48.082;11.628;2023-05-27T05:29:36;14.70;;;5.90;;
72408;SDS011;60402;48.082;11.628;2023-05-27T05:32:22;13.13;;;5.40;;
72408;SDS011;60402;48.082;11.628;2023-05-27T05:35:08;9.95;;;5.50;;
72408;SDS011;60402;48.082;11.628;2023-05-27T05:37:54;9.45;;;5.25;;
72408;SDS011;60402;48.082;11.628;2023-05-27T05:40:39;11.60;;;6.03;;
72408;SDS011;60402;48.082;11.628;2023-05-27T05:43:25;13.20;;;5.90;;
72408;SDS011;60402;48.082;11.628;2023-05-27T05:46:11;14.13;;;5.50;;
72408;SDS011;60402;48.082;11.628;2023-05-27T05:48:57;9.20;;;5.20;;
72408;SDS011;60402;48.082;11.628;2023-05-27T05:51:42;9.57;;;5.10;;
72408;SDS011;60402;48.082;11.628;2023-05-27T05:54:28;11.27;;;5.22;;
72408;SDS011;60402;48.082;11.628;2023-05-27T05:57:14;12.45;;;6.00;;
72408;SDS011;60402;48.082;11.628;2023-05-27T05:59:59;10.68;;;5.32;;
72408;SDS011;60402;48.082;11.628;2023-05-27T06:02:45;9.15;;;5.30;;
72408;SDS011;60402;48.082;11.628;2023-05-27T06:05:31;10.35;;;5.13;;
72408;SDS011;60402;48.082;11.628;2023-05-27T06:08:16;11.57;;;5.88;;
72408;SDS011;60402;48.082;11.628;2023-05-27T06:11:02;12.45;;;5.45;;
72408;SDS011;60402;48.082;11.628;2023-05-27T06:13:48;10.55;;;5.38;;
72408;SDS011;60402;48.082;11.628;2023-05-27T06:16:34;8.93;;;4.82;;
72408;SDS011;60402;48.082;11.628;2023-05-27T06:19:24;9.70;;;4.50;;
72408;SDS011;60402;48.082;11.628;2023-05-27T06:22:10;12.15;;;5.07;;
72408;SDS011;60402;48.082;11.628;2023-05-27T06:24:56;9.82;;;4.32;;
72408;SDS011;60402;48.082;11.628;2023-05-27T06:27:41;13.75;;;5.43;;
72408;SDS011;60402;48.082;11.628;2023-05-27T06:30:27;10.95;;;4.80;;
72408;SDS011;60402;48.082;11.628;2023-05-27T06:33:13;8.10;;;3.92;;
72408;SDS011;60402;48.082;11.628;2023-05-27T06:35:58;9.00;;;5.03;;
72408;SDS011;60402;48.082;11.628;2023-05-27T06:38:44;11.25;;;4.38;;
72408;SDS011;60402;48.082;11.628;2023-05-27T06:41:30;8.23;;;3.60;;
72408;SDS011;60402;48.082;11.628;2023-05-27T06:44:16;9.35;;;4.03;;
72408;SDS011;60402;48.082;11.628;2023-05-27T06:47:01;7.18;;;3.35;;
72408;SDS011;60402;48.082;11.628;2023-05-27T06:49:47;9.65;;;3.75;;
72408;SDS011;60402;48.082;11.628;2023-05-27T06:52:33;9.77;;;3.65;;
72408;SDS011;60402;48.082;11.628;2023-05-27T06:55:18;8.30;;;3.20;;
72408;SDS011;60402;48.082;11.628;2023-05-27T06:58:04;9.23;;;3.55;;
72408;SDS011;60402;48.082;11.628;2023-05-27T07:00:51;8.48;;;3.25;;
72408;SDS011;60402;48.082;11.628;2023-05-27T07:03:36;10.95;;;3.53;;
72408;SDS011;60402;48.082;11.628;2023-05-27T07:06:22;7.45;;;3.28;;
72408;SDS011;60402;48.082;11.628;2023-05-27T07:09:08;7.80;;;3.42;;
72408;SDS011;60402;48.082;11.628;2023-05-27T07:11:54;7.60;;;3.13;;
72408;SDS011;60402;48.082;11.628;2023-05-27T07:14:39;7.95;;;3.30;;
72408;SDS011;60402;48.082;11.628;2023-05-27T07:17:25;10.55;;;3.45;;
72408;SDS011;60402;48.082;11.628;2023-05-27T07:20:17;9.20;;;3.50;;
72408;SDS011;60402;48.082;11.628;2023-05-27T07:23:02;8.20;;;3.20;;
72408;SDS011;60402;48.082;11.628;2023-05-27T07:25:48;8.75;;;3.05;;
72408;SDS011;60402;48.082;11.628;2023-05-27T07:28:34;8.85;;;3.65;;
72408;SDS011;60402;48.082;11.628;2023-05-27T07:31:19;8.98;;;3.22;;
72408;SDS011;60402;48.082;11.628;2023-05-27T07:34:05;7.57;;;3.30;;
72408;SDS011;60402;48.082;11.628;2023-05-27T07:36:51;7.93;;;3.13;;
72408;SDS011;60402;48.082;11.628;2023-05-27T07:39:37;8.05;;;3.05;;
72408;SDS011;60402;48.082;11.628;2023-05-27T07:42:22;11.15;;;3.10;;
72408;SDS011;60402;48.082;11.628;2023-05-27T07:45:08;9.13;;;3.22;;
72408;SDS011;60402;48.082;11.628;2023-05-27T07:47:54;7.80;;;3.20;;
72408;SDS011;60402;48.082;11.628;2023-05-27T07:50:40;12.25;;;3.78;;
72408;SDS011;60402;48.082;11.628;2023-05-27T07:53:26;8.32;;;3.17;;
72408;SDS011;60402;48.082;11.628;2023-05-27T07:56:11;7.55;;;3.08;;
72408;SDS011;60402;48.082;11.628;2023-05-27T07:58:57;9.35;;;2.92;;
72408;SDS011;60402;48.082;11.628;2023-05-27T08:01:43;6.20;;;3.17;;
72408;SDS011;60402;48.082;11.628;2023-05-27T08:04:28;10.30;;;3.28;;
72408;SDS011;60402;48.082;11.628;2023-05-27T08:07:14;7.85;;;3.20;;
72408;SDS011;60402;48.082;11.628;2023-05-27T08:10:00;8.02;;;3.83;;
72408;SDS011;60402;48.082;11.628;2023-05-27T08:12:45;10.55;;;3.17;;
72408;SDS011;60402;48.082;11.628;2023-05-27T08:15:31;8.55;;;3.38;;
72408;SDS011;60402;48.082;11.628;2023-05-27T08:18:17;9.20;;;3.28;;
72408;SDS011;60402;48.082;11.628;2023-05-27T08:21:03;9.68;;;3.38;;
72408;SDS011;60402;48.082;11.628;2023-05-27T08:23:48;8.30;;;3.65;;
72408;SDS011;60402;48.082;11.628;2023-05-27T08:26:34;9.10;;;3.50;;
72408;SDS011;60402;48.082;11.628;2023-05-27T08:29:20;8.82;;;3.70;;
72408;SDS011;60402;48.082;11.628;2023-05-27T08:32:05;9.68;;;3.63;;
72408;SDS011;60402;48.082;11.628;2023-05-27T08:34:51;9.90;;;3.45;;
72408;SDS011;60402;48.082;11.628;2023-05-27T08:37:37;9.02;;;3.85;;
72408;SDS011;60402;48.082;11.628;2023-05-27T08:40:23;10.95;;;3.85;;
72408;SDS011;60402;48.082;11.628;2023-05-27T08:43:09;10.98;;;3.92;;
72408;SDS011;60402;48.082;11.628;2023-05-27T08:45:54;11.00;;;3.65;;
72408;SDS011;60402;48.082;11.628;2023-05-27T08:48:41;7.65;;;3.13;;
72408;SDS011;60402;48.082;11.628;2023-05-27T08:51:28;9.88;;;3.92;;
72408;SDS011;60402;48.082;11.628;2023-05-27T08:54:14;9.52;;;3.72;;
72408;SDS011;60402;48.082;11.628;2023-05-27T08:57:00;9.43;;;3.92;;
72408;SDS011;60402;48.082;11.628;2023-05-27T08:59:55;9.13;;;3.60;;
72408;SDS011;60402;48.082;11.628;2023-05-27T09:02:41;11.00;;;4.18;;
72408;SDS011;60402;48.082;11.628;2023-05-27T09:05:26;9.02;;;3.78;;
72408;SDS011;60402;48.082;11.628;2023-05-27T09:08:13;11.38;;;3.83;;
72408;SDS011;60402;48.082;11.628;2023-05-27T09:10:59;9.25;;;3.78;;
72408;SDS011;60402;48.082;11.628;2023-05-27T09:13:46;9.13;;;4.28;;
72408;SDS011;60402;48.082;11.628;2023-05-27T09:16:31;7.90;;;4.18;;
72408;SDS011;60402;48.082;11.628;2023-05-27T09:19:17;9.93;;;4.93;;
72408;SDS011;60402;48.082;11.628;2023-05-27T09:22:06;9.13;;;4.00;;
72408;SDS011;60402;48.082;11.628;2023-05-27T09:24:52;9.23;;;3.80;;
72408;SDS011;60402;48.082;11.628;2023-05-27T09:27:42;9.43;;;4.10;;
72408;SDS011;60402;48.082;11.628;2023-05-27T09:30:28;7.82;;;3.88;;
72408;SDS011;60402;48.082;11.628;2023-05-27T09:33:14;8.02;;;4.10;;
72408;SDS011;60402;48.082;11.628;2023-05-27T09:36:00;10.48;;;4.38;;
72408;SDS011;60402;48.082;11.628;2023-05-27T09:38:46;8.18;;;4.30;;
72408;SDS011;60402;48.082;11.628;2023-05-27T09:41:33;9.68;;;4.65;;
72408;SDS011;60402;48.082;11.628;2023-05-27T09:44:19;10.40;;;4.50;;
72408;SDS011;60402;48.082;11.628;2023-05-27T09:47:05;11.70;;;4.57;;
72408;SDS011;60402;48.082;11.628;2023-05-27T09:52:39;10.55;;;4.03;;
72408;SDS011;60402;48.082;11.628;2023-05-27T09:55:26;9.43;;;5.10;;
72408;SDS011;60402;48.082;11.628;2023-05-27T09:58:14;11.73;;;3.75;;
72408;SDS011;60402;48.082;11.628;2023-05-27T10:01:00;11.05;;;4.75;;
72408;SDS011;60402;48.082;11.628;2023-05-27T10:03:46;10.45;;;4.22;;
72408;SDS011;60402;48.082;11.628;2023-05-27T10:06:32;9.43;;;4.20;;
72408;SDS011;60402;48.082;11.628;2023-05-27T10:09:19;10.80;;;4.53;;
72408;SDS011;60402;48.082;11.628;2023-05-27T10:12:05;8.88;;;4.32;;
72408;SDS011;60402;48.082;11.628;2023-05-27T10:14:51;11.18;;;4.65;;
72408;SDS011;60402;48.082;11.628;2023-05-27T10:17:53;8.65;;;4.63;;
72408;SDS011;60402;48.082;11.628;2023-05-27T10:20:41;11.45;;;4.55;;
72408;SDS011;60402;48.082;11.628;2023-05-27T10:23:28;10.18;;;4.38;;
72408;SDS011;60402;48.082;11.628;2023-05-27T10:26:16;9.95;;;4.05;;
72408;SDS011;60402;48.082;11.628;2023-05-27T10:29:15;7.35;;;4.00;;
72408;SDS011;60402;48.082;11.628;2023-05-27T10:34:48;11.27;;;4.45;;
72408;SDS011;60402;48.082;11.628;2023-05-27T10:37:34;8.85;;;4.28;;
72408;SDS011;60402;48.082;11.628;2023-05-27T10:40:25;7.78;;;4.30;;
72408;SDS011;60402;48.082;11.628;2023-05-27T10:43:15;8.23;;;3.88;;
72408;SDS011;60402;48.082;11.628;2023-05-27T10:46:13;9.18;;;4.10;;
72408;SDS011;60402;48.082;11.628;2023-05-27T10:49:08;9.35;;;4.03;;
72408;SDS011;60402;48.082;11.628;2023-05-27T10:51:55;9.00;;;4.47;;
72408;SDS011;60402;48.082;11.628;2023-05-27T10:54:43;8.02;;;4.18;;
72408;SDS011;60402;48.082;11.628;2023-05-27T10:57:32;11.95;;;4.00;;
72408;SDS011;60402;48.082;11.628;2023-05-27T11:00:18;8.98;;;4.25;;
72408;SDS011;60402;48.082;11.628;2023-05-27T11:03:15;7.88;;;4.13;;
72408;SDS011;60402;48.082;11.628;2023-05-27T11:06:13;9.30;;;4.68;;
72408;SDS011;60402;48.082;11.628;2023-05-27T11:09:00;9.30;;;3.90;;
72408;SDS011;60402;48.082;11.628;2023-05-27T11:11:46;10.93;;;4.72;;
72408;SDS011;60402;48.082;11.628;2023-05-27T11:14:31;11.07;;;3.83;;
72408;SDS011;60402;48.082;11.628;2023-05-27T11:17:19;9.48;;;4.30;;
72408;SDS011;60402;48.082;11.628;2023-05-27T11:20:05;10.13;;;4.35;;
72408;SDS011;60402;48.082;11.628;2023-05-27T11:22:52;8.07;;;3.88;;
72408;SDS011;60402;48.082;11.628;2023-05-27T11:25:44;8.73;;;4.00;;
72408;SDS011;60402;48.082;11.628;2023-05-27T11:28:30;11.35;;;4.32;;
72408;SDS011;60402;48.082;11.628;2023-05-27T11:31:16;9.50;;;4.07;;
72408;SDS011;60402;48.082;11.628;2023-05-27T11:34:02;10.65;;;4.30;;
72408;SDS011;60402;48.082;11.628;2023-05-27T11:36:48;6.85;;;3.58;;
72408;SDS011;60402;48.082;11.628;2023-05-27T11:39:35;12.07;;;4.07;;
72408;SDS011;60402;48.082;11.628;2023-05-27T11:42:21;8.88;;;3.72;;
72408;SDS011;60402;48.082;11.628;2023-05-27T11:45:13;10.57;;;4.10;;
72408;SDS011;60402;48.082;11.628;2023-05-27T11:48:01;7.20;;;3.65;;
72408;SDS011;60402;48.082;11.628;2023-05-27T11:50:48;11.52;;;4.47;;
72408;SDS011;60402;48.082;11.628;2023-05-27T11:53:38;9.63;;;3.67;;
72408;SDS011;60402;48.082;11.628;2023-05-27T11:56:25;9.23;;;3.13;;
72408;SDS011;60402;48.082;11.628;2023-05-27T11:59:11;8.25;;;3.28;;
72408;SDS011;60402;48.082;11.628;2023-05-27T12:01:56;9.23;;;3.30;;
72408;SDS011;60402;48.082;11.628;2023-05-27T12:04:42;9.00;;;3.80;;
72408;SDS011;60402;48.082;11.628;2023-05-27T12:07:28;9.48;;;4.03;;
72408;SDS011;60402;48.082;11.628;2023-05-27T12:10:13;9.63;;;3.70;;
72408;SDS011;60402;48.082;11.628;2023-05-27T12:13:05;7.82;;;3.30;;
72408;SDS011;60402;48.082;11.628;2023-05-27T12:15:52;9.23;;;3.67;;
72408;SDS011;60402;48.082;11.628;2023-05-27T12:18:37;7.80;;;3.75;;
72408;SDS011;60402;48.082;11.628;2023-05-27T12:21:24;9.25;;;3.40;;
72408;SDS011;60402;48.082;11.628;2023-05-27T12:24:10;6.90;;;3.40;;
72408;SDS011;60402;48.082;11.628;2023-05-27T12:26:55;8.88;;;3.40;;
72408;SDS011;60402;48.082;11.628;2023-05-27T12:29:41;8.57;;;3.40;;
72408;SDS011;60402;48.082;11.628;2023-05-27T12:32:27;8.80;;;3.30;;
72408;SDS011;60402;48.082;11.628;2023-05-27T12:35:12;8.00;;;3.13;;
72408;SDS011;60402;48.082;11.628;2023-05-27T12:37:58;7.13;;;3.03;;
72408;SDS011;60402;48.082;11.628;2023-05-27T12:40:45;7.75;;;3.17;;
72408;SDS011;60402;48.082;11.628;2023-05-27T12:43:30;8.77;;;3.50;;
72408;SDS011;60402;48.082;11.628;2023-05-27T12:46:16;7.80;;;3.30;;
72408;SDS011;60402;48.082;11.628;2023-05-27T12:49:02;11.07;;;3.45;;
72408;SDS011;60402;48.082;11.628;2023-05-27T12:51:48;7.60;;;3.10;;
72408;SDS011;60402;48.082;11.628;2023-05-27T12:54:33;9.32;;;3.38;;
72408;SDS011;60402;48.082;11.628;2023-05-27T12:57:19;10.20;;;3.38;;
72408;SDS011;60402;48.082;11.628;2023-05-27T13:00:05;10.82;;;3.33;;
72408;SDS011;60402;48.082;11.628;2023-05-27T13:02:52;7.85;;;3.42;;
72408;SDS011;60402;48.082;11.628;2023-05-27T13:05:37;8.38;;;3.15;;
72408;SDS011;60402;48.082;11.628;2023-05-27T13:08:23;9.02;;;3.10;;
72408;SDS011;60402;48.082;11.628;2023-05-27T13:11:09;8.27;;;3.20;;
72408;SDS011;60402;48.082;11.628;2023-05-27T13:13:54;7.05;;;3.05;;
72408;SDS011;60402;48.082;11.628;2023-05-27T13:16:40;9.88;;;3.50;;
72408;SDS011;60402;48.082;11.628;2023-05-27T13:19:26;8.63;;;3.45;;
72408;SDS011;60402;48.082;11.628;2023-05-27T13:22:11;8.43;;;3.00;;
72408;SDS011;60402;48.082;11.628;2023-05-27T13:24:59;7.03;;;2.72;;
72408;SDS011;60402;48.082;11.628;2023-05-27T13:27:46;7.72;;;3.42;;
72408;SDS011;60402;48.082;11.628;2023-05-27T13:30:38;8.77;;;3.22;;
72408;SDS011;60402;48.082;11.628;2023-05-27T13:33:26;7.03;;;2.85;;
72408;SDS011;60402;48.082;11.628;2023-05-27T13:36:12;6.57;;;3.10;;
72408;SDS011;60402;48.082;11.628;2023-05-27T13:38:58;8.93;;;3.35;;
72408;SDS011;60402;48.082;11.628;2023-05-27T13:41:44;7.57;;;2.92;;
72408;SDS011;60402;48.082;11.628;2023-05-27T13:44:29;8.23;;;3.10;;
72408;SDS011;60402;48.082;11.628;2023-05-27T13:47:15;10.20;;;2.90;;
72408;SDS011;60402;48.082;11.628;2023-05-27T13:50:01;6.68;;;2.97;;
72408;SDS011;60402;48.082;11.628;2023-05-27T13:52:52;6.45;;;2.80;;
72408;SDS011;60402;48.082;11.628;2023-05-27T13:55:37;8.68;;;2.58;;
72408;SDS011;60402;48.082;11.628;2023-05-27T13:58:23;8.77;;;3.10;;
72408;SDS011;60402;48.082;11.628;2023-05-27T14:01:08;7.30;;;2.65;;
72408;SDS011;60402;48.082;11.628;2023-05-27T14:03:54;6.80;;;2.40;;
72408;SDS011;60402;48.082;11.628;2023-05-27T14:06:40;6.20;;;2.47;;
72408;SDS011;60402;48.082;11.628;2023-05-27T14:09:25;8.60;;;2.65;;
72408;SDS011;60402;48.082;11.628;2023-05-27T14:12:11;6.57;;;2.85;;
72408;SDS011;60402;48.082;11.628;2023-05-27T14:14:57;7.28;;;2.85;;
72408;SDS011;60402;48.082;11.628;2023-05-27T14:17:43;7.38;;;2.78;;
72408;SDS011;60402;48.082;11.628;2023-05-27T14:20:28;7.50;;;3.30;;
72408;SDS011;60402;48.082;11.628;2023-05-27T14:23:14;6.75;;;2.70;;
72408;SDS011;60402;48.082;11.628;2023-05-27T14:26:01;7.45;;;2.85;;
72408;SDS011;60402;48.082;11.628;2023-05-27T14:28:47;6.85;;;2.25;;
72408;SDS011;60402;48.082;11.628;2023-05-27T14:31:33;6.70;;;2.58;;
72408;SDS011;60402;48.082;11.628;2023-05-27T14:34:19;9.52;;;3.10;;
72408;SDS011;60402;48.082;11.628;2023-05-27T14:37:04;10.38;;;2.67;;
72408;SDS011;60402;48.082;11.628;2023-05-27T14:39:51;9.55;;;3.25;;
72408;SDS011;60402;48.082;11.628;2023-05-27T14:42:37;9.05;;;2.78;;
72408;SDS011;60402;48.082;11.628;2023-05-27T14:45:23;6.35;;;2.70;;
72408;SDS011;60402;48.082;11.628;2023-05-27T14:48:09;7.13;;;2.58;;
72408;SDS011;60402;48.082;11.628;2023-05-27T14:50:55;8.50;;;2.90;;
72408;SDS011;60402;48.082;11.628;2023-05-27T14:53:41;7.68;;;2.60;;
72408;SDS011;60402;48.082;11.628;2023-05-27T14:56:26;6.53;;;2.60;;
72408;SDS011;60402;48.082;11.628;2023-05-27T14:59:12;5.80;;;2.40;;
72408;SDS011;60402;48.082;11.628;2023-05-27T15:01:58;6.32;;;2.40;;
72408;SDS011;60402;48.082;11.628;2023-05-27T15:04:43;7.15;;;2.92;;
72408;SDS011;60402;48.082;11.628;2023-05-27T15:07:31;7.82;;;2.58;;
72408;SDS011;60402;48.082;11.628;2023-05-27T15:13:03;7.18;;;2.58;;
72408;SDS011;60402;48.082;11.628;2023-05-27T15:15:48;8.23;;;2.95;;
72408;SDS011;60402;48.082;11.628;2023-05-27T15:18:35;8.93;;;2.95;;
72408;SDS011;60402;48.082;11.628;2023-05-27T15:21:20;5.80;;;2.38;;
72408;SDS011;60402;48.082;11.628;2023-05-27T15:24:06;6.35;;;2.50;;
72408;SDS011;60402;48.082;11.628;2023-05-27T15:26:52;7.78;;;2.65;;
72408;SDS011;60402;48.082;11.628;2023-05-27T15:29:38;6.00;;;2.53;;
72408;SDS011;60402;48.082;11.628;2023-05-27T15:32:23;8.00;;;2.40;;
72408;SDS011;60402;48.082;11.628;2023-05-27T15:35:09;5.47;;;2.45;;
72408;SDS011;60402;48.082;11.628;2023-05-27T15:37:55;7.20;;;2.65;;
72408;SDS011;60402;48.082;11.628;2023-05-27T15:40:41;9.20;;;2.60;;
72408;SDS011;60402;48.082;11.628;2023-05-27T15:43:29;7.28;;;2.30;;
72408;SDS011;60402;48.082;11.628;2023-05-27T15:46:15;6.95;;;2.20;;
72408;SDS011;60402;48.082;11.628;2023-05-27T15:49:01;7.20;;;2.10;;
72408;SDS011;60402;48.082;11.628;2023-05-27T15:51:46;5.30;;;2.10;;
72408;SDS011;60402;48.082;11.628;2023-05-27T15:54:32;6.15;;;2.20;;
72408;SDS011;60402;48.082;11.628;2023-05-27T15:57:18;7.53;;;2.13;;
72408;SDS011;60402;48.082;11.628;2023-05-27T16:00:04;8.10;;;2.33;;
72408;SDS011;60402;48.082;11.628;2023-05-27T16:06:03;5.72;;;2.25;;
72408;SDS011;60402;48.082;11.628;2023-05-27T16:08:52;5.93;;;2.03;;
72408;SDS011;60402;48.082;11.628;2023-05-27T16:11:39;10.43;;;2.88;;
72408;SDS011;60402;48.082;11.628;2023-05-27T16:14:24;9.10;;;2.67;;
72408;SDS011;60402;48.082;11.628;2023-05-27T16:17:10;5.82;;;2.35;;
72408;SDS011;60402;48.082;11.628;2023-05-27T16:19:56;5.20;;;2.03;;
72408;SDS011;60402;48.082;11.628;2023-05-27T16:22:42;6.03;;;2.35;;
72408;SDS011;60402;48.082;11.628;2023-05-27T16:25:27;6.43;;;2.30;;
72408;SDS011;60402;48.082;11.628;2023-05-27T16:28:13;7.90;;;2.30;;
72408;SDS011;60402;48.082;11.628;2023-05-27T16:30:59;6.63;;;2.10;;
72408;SDS011;60402;48.082;11.628;2023-05-27T16:33:45;5.45;;;2.15;;